createdAt,value
2017-10-25T00:00:32.967Z,95.50
2017-10-25T00:03:00.505Z,95.54
2017-10-25T00:05:28.039Z,95.63
2017-10-25T00:07:55.528Z,95.70
2017-10-25T00:10:23.143Z,95.79
2017-10-25T00:12:50.701Z,95.92
2017-10-25T00:15:18.261Z,95.97
2017-10-25T00:17:45.925Z,95.94
2017-10-25T00:20:13.420Z,95.98
2017-10-25T00:22:40.908Z,95.95
2017-10-25T00:25:09.314Z,95.99
2017-10-25T00:27:36.806Z,96.03
2017-10-25T00:30:04.302Z,96.07
2017-10-25T00:32:32.396Z,96.03
2017-10-25T00:34:59.890Z,96.11
2017-10-25T00:37:27.390Z,96.18
2017-10-25T00:39:55.293Z,96.23
2017-10-25T00:42:22.849Z,96.26
2017-10-25T00:44:50.430Z,96.19
2017-10-25T00:47:20.982Z,96.23
2017-10-25T00:49:48.502Z,96.18
2017-10-25T00:52:16.263Z,96.22
2017-10-25T00:54:43.755Z,96.25
2017-10-25T00:57:11.248Z,96.18
2017-10-25T00:59:38.837Z,96.20
2017-10-25T01:02:06.328Z,96.17
2017-10-25T01:04:33.829Z,96.13
2017-10-25T01:07:02.224Z,96.14
2017-10-25T01:09:29.718Z,96.06
2017-10-25T01:11:57.251Z,96.00
2017-10-25T01:14:24.771Z,96.01
2017-10-25T01:16:52.263Z,96.03
2017-10-25T01:19:19.824Z,96.07
2017-10-25T01:21:48.105Z,96.17
2017-10-25T01:24:15.591Z,96.14
2017-10-25T01:26:43.075Z,95.95
2017-10-25T01:29:11.668Z,95.91
2017-10-25T01:31:40.078Z,95.98
2017-10-25T01:34:07.571Z,96.07
2017-10-25T01:36:35.862Z,95.99
2017-10-25T01:39:03.355Z,95.96
2017-10-25T01:41:30.927Z,96.07
2017-10-25T01:43:59.299Z,96.07
2017-10-25T01:46:26.863Z,96.17
2017-10-25T01:48:54.445Z,96.08
2017-10-25T01:51:23.332Z,96.03
2017-10-25T01:53:50.835Z,96.10
2017-10-25T01:56:18.351Z,96.10
2017-10-25T01:58:45.851Z,96.00
2017-10-25T02:01:14.972Z,96.00
2017-10-25T02:03:42.459Z,96.03
2017-10-25T02:06:09.957Z,95.99
2017-10-25T02:08:38.376Z,96.05
2017-10-25T02:11:05.874Z,96.05
2017-10-25T02:13:33.373Z,95.99
2017-10-25T02:16:01.059Z,95.99
2017-10-25T02:18:28.551Z,96.06
2017-10-25T02:20:56.057Z,96.04
2017-10-25T02:23:23.736Z,96.07
2017-10-25T02:25:51.299Z,96.02
2017-10-25T02:28:18.801Z,96.01
2017-10-25T02:30:46.322Z,96.02
2017-10-25T02:33:14.280Z,95.99
2017-10-25T02:35:41.775Z,95.99
2017-10-25T02:38:09.270Z,95.96
2017-10-25T02:40:36.784Z,95.92
2017-10-25T02:43:04.304Z,95.93
2017-10-25T02:45:31.804Z,95.88
2017-10-25T02:48:00.844Z,95.96
2017-10-25T02:50:28.335Z,96.01
2017-10-25T02:52:55.823Z,95.97
2017-10-25T02:55:23.353Z,95.93
2017-10-25T02:57:50.897Z,95.97
2017-10-25T03:00:18.399Z,96.02
2017-10-25T03:02:46.740Z,96.08
2017-10-25T03:05:14.227Z,96.01
2017-10-25T03:07:41.723Z,96.03
2017-10-25T03:10:10.780Z,96.04
2017-10-25T03:12:38.275Z,95.98
2017-10-25T03:15:05.855Z,96.01
2017-10-25T03:17:33.411Z,96.06
2017-10-25T03:20:00.980Z,96.00
2017-10-25T03:22:28.476Z,95.97
2017-10-25T03:24:55.996Z,96.02
2017-10-25T03:27:23.508Z,96.04
2017-10-25T03:29:51.827Z,96.10
2017-10-25T03:32:19.333Z,96.09
2017-10-25T03:34:46.824Z,96.04
2017-10-25T03:37:14.345Z,96.08
2017-10-25T03:39:41.864Z,96.03
2017-10-25T03:42:09.360Z,96.07
2017-10-25T03:44:36.876Z,96.01
2017-10-25T03:47:05.252Z,96.05
2017-10-25T03:49:33.486Z,96.09
2017-10-25T03:52:00.980Z,96.04
2017-10-25T03:54:29.373Z,96.01
2017-10-25T03:56:56.923Z,96.01
2017-10-25T03:59:24.420Z,96.01
2017-10-25T04:01:51.937Z,95.97
2017-10-25T04:04:19.431Z,96.00
2017-10-25T04:06:46.948Z,96.01
2017-10-25T04:09:15.540Z,96.02
2017-10-25T04:11:43.101Z,96.02
2017-10-25T04:14:10.672Z,96.02
2017-10-25T04:16:38.195Z,96.02
2017-10-25T04:19:05.791Z,96.04
2017-10-25T04:21:33.336Z,96.03
2017-10-25T04:24:00.870Z,96.03
2017-10-25T04:26:28.375Z,95.94
2017-10-25T04:28:55.873Z,95.99
2017-10-25T04:31:24.290Z,95.87
2017-10-25T04:33:51.851Z,95.82
2017-10-25T04:36:19.415Z,95.75
2017-10-25T04:38:46.932Z,95.77
2017-10-25T04:41:14.423Z,95.82
2017-10-25T04:43:41.991Z,95.74
2017-10-25T04:46:10.204Z,95.86
2017-10-25T04:48:37.694Z,95.78
2017-10-25T04:51:06.002Z,95.82
2017-10-25T04:53:33.559Z,95.87
2017-10-25T04:56:01.058Z,95.73
2017-10-25T04:58:30.054Z,95.72
2017-10-25T05:00:57.556Z,95.72
2017-10-25T05:03:25.127Z,95.75
2017-10-25T05:05:52.704Z,95.72
2017-10-25T05:08:20.248Z,95.64
2017-10-25T05:10:47.740Z,95.57
2017-10-25T05:13:15.729Z,95.56
2017-10-25T05:15:43.220Z,95.49
2017-10-25T05:18:10.716Z,95.50
2017-10-25T05:20:38.329Z,95.58
2017-10-25T05:23:05.925Z,95.58
2017-10-25T05:25:33.415Z,95.59
2017-10-25T05:28:01.854Z,95.59
2017-10-25T05:30:29.424Z,95.56
2017-10-25T05:32:56.968Z,95.64
2017-10-25T05:35:24.633Z,95.52
2017-10-25T05:37:52.127Z,95.66
2017-10-25T05:40:19.628Z,95.74
2017-10-25T05:42:47.155Z,95.77
2017-10-25T05:45:15.255Z,95.87
2017-10-25T05:47:42.829Z,95.94
2017-10-25T05:50:10.334Z,96.03
2017-10-25T05:52:38.048Z,96.08
2017-10-25T05:55:05.548Z,96.24
2017-10-25T05:57:33.045Z,96.24
2017-10-25T06:00:01.445Z,96.23
2017-10-25T06:02:28.940Z,96.24
2017-10-25T06:04:56.435Z,96.30
2017-10-25T06:07:24.847Z,96.37
2017-10-25T06:09:52.341Z,96.40
2017-10-25T06:12:19.833Z,96.44
2017-10-25T06:14:47.367Z,96.42
2017-10-25T06:17:14.862Z,96.50
2017-10-25T06:19:42.363Z,96.54
2017-10-25T06:22:10.707Z,96.58
2017-10-25T06:24:38.199Z,96.67
2017-10-25T06:27:05.688Z,96.55
2017-10-25T06:29:33.210Z,96.57
2017-10-25T06:32:00.746Z,96.58
2017-10-25T06:37:02.215Z,96.54
2017-10-25T06:39:29.755Z,96.54
2017-10-25T06:41:57.250Z,96.42
2017-10-25T06:44:24.761Z,96.43
2017-10-25T06:46:52.444Z,96.50
2017-10-25T06:49:19.943Z,96.49
2017-10-25T06:51:47.453Z,96.45
2017-10-25T06:54:14.980Z,96.36
2017-10-25T06:56:42.588Z,96.31
2017-10-25T06:59:10.079Z,96.28
2017-10-25T07:01:37.602Z,96.19
2017-10-25T07:04:05.268Z,96.11
2017-10-25T07:06:32.827Z,96.06
2017-10-25T07:09:00.381Z,95.78
2017-10-25T07:11:27.946Z,95.79
2017-10-25T07:13:55.470Z,95.68
2017-10-25T07:16:22.960Z,95.51
2017-10-25T07:18:51.438Z,95.27
2017-10-25T07:21:18.935Z,95.09
2017-10-25T07:23:46.454Z,95.00
2017-10-25T07:26:14.016Z,94.91
2017-10-25T07:28:41.515Z,94.89
2017-10-25T07:31:09.000Z,94.88
2017-10-25T07:33:37.308Z,94.79
2017-10-25T07:36:04.801Z,94.73
2017-10-25T07:38:32.296Z,94.69
2017-10-25T07:40:59.829Z,94.34
2017-10-25T07:43:28.155Z,94.10
2017-10-25T07:45:55.716Z,93.89
2017-10-25T07:48:23.211Z,93.78
2017-10-25T07:50:50.743Z,93.49
2017-10-25T07:53:18.240Z,93.36
2017-10-25T07:55:45.756Z,93.17
2017-10-25T07:58:13.307Z,93.11
2017-10-25T08:00:40.809Z,93.06
2017-10-25T08:03:08.295Z,92.85
2017-10-25T08:05:35.851Z,92.79
2017-10-25T08:08:03.447Z,92.58
2017-10-25T08:10:30.961Z,91.97
2017-10-25T08:12:58.664Z,91.87
2017-10-25T08:15:26.216Z,91.82
2017-10-25T08:17:53.714Z,91.36
2017-10-25T08:20:21.251Z,91.33
2017-10-25T08:22:48.796Z,91.36
2017-10-25T08:25:16.282Z,91.39
2017-10-25T08:27:43.815Z,90.90
2017-10-25T08:30:11.375Z,90.89
2017-10-25T08:32:38.880Z,90.65
2017-10-25T08:35:06.488Z,90.69
2017-10-25T08:37:34.043Z,90.50
2017-10-25T08:40:01.550Z,90.28
2017-10-25T08:42:29.497Z,90.06
2017-10-25T08:44:56.981Z,90.57
2017-10-25T08:47:24.515Z,90.30
2017-10-25T08:49:52.069Z,89.90
2017-10-25T08:52:19.615Z,89.77
2017-10-25T08:54:47.103Z,89.83
2017-10-25T08:57:14.668Z,89.41
2017-10-25T08:59:42.291Z,89.54
2017-10-25T09:02:09.952Z,89.63
2017-10-25T09:04:37.451Z,89.11
2017-10-25T09:07:04.948Z,88.92
2017-10-25T09:09:32.476Z,88.82
2017-10-25T09:11:59.970Z,88.95
2017-10-25T09:14:27.463Z,88.86
2017-10-25T09:16:54.989Z,88.48
2017-10-25T09:19:22.493Z,88.33
2017-10-25T09:21:49.987Z,88.12
2017-10-25T09:24:17.511Z,87.95
2017-10-25T09:26:45.057Z,88.17
2017-10-25T09:29:12.559Z,87.98
2017-10-25T09:31:40.153Z,87.79
2017-10-25T09:34:07.691Z,87.44
2017-10-25T09:36:35.185Z,87.07
2017-10-25T09:39:02.672Z,86.69
2017-10-25T09:41:30.385Z,86.06
2017-10-25T09:43:57.960Z,86.24
2017-10-25T09:46:25.448Z,85.48
2017-10-25T09:48:52.984Z,85.27
2017-10-25T09:51:20.518Z,85.11
2017-10-25T09:53:48.075Z,83.66
2017-10-25T09:56:15.588Z,83.60
2017-10-25T09:58:43.119Z,83.84
2017-10-25T10:01:10.870Z,83.73
2017-10-25T10:03:38.359Z,83.85
2017-10-25T10:06:05.887Z,83.09
2017-10-25T10:08:33.423Z,83.60
2017-10-25T10:11:00.944Z,83.52
2017-10-25T10:13:28.436Z,83.82
2017-10-25T10:15:55.924Z,83.86
2017-10-25T10:18:23.460Z,84.22
2017-10-25T10:20:51.023Z,84.30
2017-10-25T10:23:18.507Z,84.16
2017-10-25T10:25:46.024Z,84.19
2017-10-25T10:28:13.512Z,83.32
2017-10-25T10:30:41.084Z,83.18
2017-10-25T10:33:08.572Z,82.73
2017-10-25T10:35:36.097Z,82.66
2017-10-25T10:38:03.653Z,82.50
2017-10-25T10:40:31.147Z,82.40
2017-10-25T10:42:58.636Z,82.05
2017-10-25T10:45:26.169Z,82.34
2017-10-25T10:47:53.659Z,82.00
2017-10-25T10:50:21.157Z,82.00
2017-10-25T10:52:48.689Z,81.17
2017-10-25T10:55:16.243Z,81.17
2017-10-25T10:57:43.729Z,80.42
2017-10-25T11:00:11.273Z,80.57
2017-10-25T11:02:38.778Z,80.52
2017-10-25T11:05:06.268Z,80.47
2017-10-25T11:07:33.776Z,80.99
2017-10-25T11:10:01.260Z,81.26
2017-10-25T11:12:28.872Z,81.35
2017-10-25T11:14:56.411Z,81.93
2017-10-25T11:17:23.901Z,81.31
2017-10-25T11:19:51.522Z,80.95
2017-10-25T11:22:19.008Z,80.51
2017-10-25T11:24:46.492Z,79.93
2017-10-25T11:27:14.013Z,79.11
2017-10-25T11:29:41.506Z,79.17
2017-10-25T11:32:08.995Z,78.94
2017-10-25T11:34:36.514Z,78.67
2017-10-25T11:37:03.997Z,78.05
2017-10-25T11:39:31.481Z,77.88
2017-10-25T11:41:59.016Z,77.51
2017-10-25T11:44:26.496Z,77.29
2017-10-25T11:46:54.068Z,77.52
2017-10-25T11:49:21.586Z,77.46
2017-10-25T11:51:49.071Z,76.46
2017-10-25T11:54:16.643Z,77.19
2017-10-25T11:56:44.208Z,76.73
2017-10-25T11:59:11.698Z,76.82
2017-10-25T12:01:39.239Z,76.61
2017-10-25T12:04:06.720Z,76.06
2017-10-25T12:06:34.205Z,76.09
2017-10-25T12:09:01.707Z,75.86
2017-10-25T12:11:29.274Z,76.10
2017-10-25T12:13:56.758Z,76.50
2017-10-25T12:16:24.261Z,76.74
2017-10-25T12:18:51.785Z,77.37
2017-10-25T12:21:19.282Z,77.81
2017-10-25T12:23:46.774Z,77.87
2017-10-25T12:26:14.286Z,76.56
2017-10-25T12:28:41.855Z,75.42
2017-10-25T12:31:09.335Z,75.31
2017-10-25T12:33:36.819Z,74.48
2017-10-25T12:36:04.369Z,73.79
2017-10-25T12:38:31.853Z,73.38
2017-10-25T12:40:59.339Z,72.36
2017-10-25T12:43:26.900Z,73.09
2017-10-25T12:45:55.279Z,73.57
2017-10-25T12:48:22.862Z,72.95
2017-10-25T12:50:50.383Z,72.38
2017-10-25T12:53:17.967Z,72.43
2017-10-25T12:55:45.503Z,71.48
2017-10-25T12:58:13.079Z,71.04
2017-10-25T13:00:40.563Z,71.08
2017-10-25T13:03:08.088Z,70.41
2017-10-25T13:05:35.610Z,70.65
2017-10-25T13:08:03.122Z,70.15
2017-10-25T13:10:47.731Z,69.95
2017-10-25T13:13:35.990Z,70.12
2017-10-25T13:16:05.008Z,70.00
2017-10-25T13:18:33.220Z,70.22
2017-10-25T13:21:00.708Z,70.89
2017-10-25T13:23:28.328Z,70.63
2017-10-25T13:25:55.819Z,70.56
2017-10-25T13:28:23.312Z,70.94
2017-10-25T13:30:50.987Z,70.18
2017-10-25T13:33:18.471Z,69.57
2017-10-25T13:35:46.006Z,69.87
2017-10-25T13:38:13.536Z,69.80
2017-10-25T13:40:41.120Z,68.90
2017-10-25T13:43:08.617Z,68.78
2017-10-25T13:45:36.144Z,68.93
2017-10-25T13:48:03.633Z,69.07
2017-10-25T13:50:31.126Z,70.06
2017-10-25T13:52:58.631Z,68.25
2017-10-25T13:55:26.173Z,67.90
2017-10-25T13:57:53.840Z,67.82
2017-10-25T14:00:21.332Z,67.27
2017-10-25T14:02:48.822Z,67.46
2017-10-25T14:05:16.356Z,68.17
2017-10-25T14:07:43.839Z,67.25
2017-10-25T14:10:11.343Z,66.39
2017-10-25T14:12:38.884Z,66.31
2017-10-25T14:15:06.371Z,65.41
2017-10-25T14:17:33.891Z,65.95
2017-10-25T14:20:01.401Z,65.01
2017-10-25T14:22:28.892Z,63.01
2017-10-25T14:24:56.429Z,63.38
2017-10-25T14:27:35.813Z,63.87
2017-10-25T14:30:03.471Z,63.42
2017-10-25T14:32:30.956Z,63.47
2017-10-25T14:34:58.431Z,63.84
2017-10-25T14:37:25.956Z,64.06
2017-10-25T14:39:53.441Z,64.43
2017-10-25T14:42:20.924Z,64.83
2017-10-25T14:44:48.434Z,65.04
2017-10-25T14:47:15.927Z,65.64
2017-10-25T14:49:43.422Z,65.76
2017-10-25T14:52:10.961Z,65.73
2017-10-25T14:54:38.449Z,65.93
2017-10-25T14:57:05.936Z,66.29
2017-10-25T14:59:33.456Z,66.53
2017-10-25T15:02:01.023Z,66.64
2017-10-25T15:04:28.515Z,67.04
2017-10-25T15:06:56.060Z,67.36
2017-10-25T15:09:23.608Z,67.68
2017-10-25T15:11:51.160Z,68.14
2017-10-25T15:14:18.717Z,68.10
2017-10-25T15:16:46.213Z,68.10
2017-10-25T15:21:47.532Z,68.47
2017-10-25T15:24:15.040Z,68.90
2017-10-25T15:26:42.650Z,68.69
2017-10-25T15:29:10.221Z,68.76
2017-10-25T15:31:37.771Z,68.82
2017-10-25T15:34:05.262Z,69.07
2017-10-25T15:36:32.813Z,68.90
2017-10-25T15:39:00.353Z,69.01
2017-10-25T15:41:27.844Z,68.91
2017-10-25T15:43:55.332Z,69.02
2017-10-25T15:46:23.036Z,69.03
2017-10-25T15:48:50.610Z,69.16
2017-10-25T15:51:18.092Z,69.27
2017-10-25T15:53:45.619Z,68.98
2017-10-25T15:56:13.170Z,69.33
2017-10-25T15:58:40.653Z,69.12
2017-10-25T16:01:08.389Z,68.91
2017-10-25T16:03:35.880Z,69.24
2017-10-25T16:06:03.365Z,70.05
2017-10-25T16:08:30.867Z,70.75
2017-10-25T16:10:58.408Z,71.20
2017-10-25T16:13:25.899Z,71.49
2017-10-25T16:15:53.419Z,71.90
2017-10-25T16:18:21.001Z,72.62
2017-10-25T16:20:48.496Z,73.98
2017-10-25T16:23:16.014Z,75.32
2017-10-25T16:25:43.502Z,75.89
2017-10-25T16:28:11.024Z,76.83
2017-10-25T16:30:38.512Z,76.86
2017-10-25T16:33:05.993Z,77.00
2017-10-25T16:35:33.601Z,77.12
2017-10-25T16:38:01.156Z,77.45
2017-10-25T16:40:28.644Z,77.61
2017-10-25T16:42:56.168Z,77.69
2017-10-25T16:45:23.653Z,77.65
2017-10-25T16:47:51.135Z,77.65
2017-10-25T16:50:18.673Z,77.66
2017-10-25T16:52:46.159Z,77.50
2017-10-25T16:55:13.693Z,77.55
2017-10-25T16:57:41.183Z,77.68
2017-10-25T17:00:08.683Z,77.92
2017-10-25T17:02:36.216Z,77.76
2017-10-25T17:05:03.696Z,77.94
2017-10-25T17:07:31.180Z,78.27
2017-10-25T17:09:58.685Z,78.31
2017-10-25T17:12:26.179Z,78.59
2017-10-25T17:14:53.840Z,78.83
2017-10-25T17:17:21.323Z,79.14
2017-10-25T17:19:48.858Z,79.08
2017-10-25T17:22:16.415Z,79.21
2017-10-25T17:24:43.895Z,79.23
2017-10-25T17:27:11.376Z,79.12
2017-10-25T17:29:38.927Z,79.25
2017-10-25T17:32:06.408Z,79.35
2017-10-25T17:34:33.932Z,79.34
2017-10-25T17:37:01.464Z,79.08
2017-10-25T17:39:29.022Z,78.95
2017-10-25T17:41:56.536Z,79.03
2017-10-25T17:44:24.039Z,79.12
2017-10-25T17:46:51.535Z,79.27
2017-10-25T17:49:19.076Z,79.23
2017-10-25T17:51:46.570Z,79.36
2017-10-25T17:54:14.065Z,79.27
2017-10-25T17:56:41.621Z,79.25
2017-10-25T17:59:09.191Z,79.31
2017-10-25T18:01:36.675Z,79.48
2017-10-25T18:04:04.405Z,79.80
2017-10-25T18:06:31.891Z,80.13
2017-10-25T18:08:59.434Z,80.64
2017-10-25T18:11:26.936Z,80.58
2017-10-25T18:13:54.559Z,80.71
2017-10-25T18:16:22.104Z,80.97
2017-10-25T18:18:49.586Z,81.22
2017-10-25T18:21:17.111Z,81.73
2017-10-25T18:23:44.615Z,81.86
2017-10-25T18:26:12.100Z,82.18
2017-10-25T18:28:39.637Z,82.62
2017-10-25T18:31:07.123Z,82.91
2017-10-25T18:33:34.621Z,83.11
2017-10-25T18:36:02.177Z,83.12
2017-10-25T18:38:29.679Z,83.04
2017-10-25T18:40:57.393Z,83.10
2017-10-25T18:43:24.945Z,83.50
2017-10-25T18:45:52.440Z,83.93
2017-10-25T18:48:19.989Z,84.40
2017-10-25T18:50:47.527Z,84.50
2017-10-25T18:53:15.081Z,84.82
2017-10-25T18:55:42.747Z,84.95
2017-10-25T18:58:10.238Z,85.34
2017-10-25T19:00:37.732Z,85.51
2017-10-25T19:03:05.273Z,85.51
2017-10-25T19:05:32.781Z,85.33
2017-10-25T19:08:00.271Z,85.25
2017-10-25T19:10:27.791Z,84.94
2017-10-25T19:12:55.280Z,84.82
2017-10-25T19:15:22.763Z,84.86
2017-10-25T19:17:50.300Z,84.89
2017-10-25T19:20:17.787Z,84.99
2017-10-25T19:22:45.279Z,85.04
2017-10-25T19:25:12.796Z,85.32
2017-10-25T19:27:40.287Z,85.70
2017-10-25T19:30:07.776Z,86.18
2017-10-25T19:32:35.301Z,86.42
2017-10-25T19:35:02.796Z,86.56
2017-10-25T19:37:30.292Z,86.54
2017-10-25T19:39:57.829Z,86.84
2017-10-25T19:42:25.352Z,87.03
2017-10-25T19:44:52.848Z,87.02
2017-10-25T19:47:20.416Z,87.21
2017-10-25T19:49:47.925Z,86.92
2017-10-25T19:52:15.475Z,86.81
2017-10-25T19:54:42.967Z,86.62
2017-10-25T19:57:10.455Z,86.69
2017-10-25T19:59:38.008Z,86.85
2017-10-25T20:02:05.520Z,86.56
2017-10-25T20:04:33.079Z,86.66
2017-10-25T20:07:00.604Z,86.56
2017-10-25T20:09:28.096Z,86.58
2017-10-25T20:11:55.677Z,86.33
2017-10-25T20:14:23.213Z,86.25
2017-10-25T20:16:50.714Z,85.84
2017-10-25T20:19:18.231Z,85.51
2017-10-25T20:21:45.763Z,84.96
2017-10-25T20:24:13.264Z,84.90
2017-10-25T20:26:40.748Z,84.37
2017-10-25T20:29:08.293Z,84.20
2017-10-25T20:31:35.818Z,83.92
2017-10-25T20:34:03.296Z,83.89
2017-10-25T20:36:30.829Z,84.08
2017-10-25T20:38:58.329Z,84.16
2017-10-25T20:41:25.818Z,84.28
2017-10-25T20:43:53.351Z,84.51
2017-10-25T20:46:20.888Z,84.57
2017-10-25T20:48:48.375Z,84.59
2017-10-25T20:51:15.904Z,84.81
2017-10-25T20:53:43.450Z,85.00
2017-10-25T20:56:10.947Z,85.16
2017-10-25T20:58:38.489Z,84.56
2017-10-25T21:01:05.972Z,84.32
2017-10-25T21:03:33.455Z,83.86
2017-10-25T21:06:00.967Z,83.67
2017-10-25T21:08:28.490Z,83.69
2017-10-25T21:10:56.048Z,83.14
2017-10-25T21:13:23.598Z,83.12
2017-10-25T21:15:51.119Z,82.91
2017-10-25T21:18:18.646Z,83.10
2017-10-25T21:20:46.133Z,83.34
2017-10-25T21:23:13.642Z,83.54
2017-10-25T21:25:41.222Z,83.58
2017-10-25T21:28:08.735Z,83.74
2017-10-25T21:30:36.211Z,83.94
2017-10-25T21:33:03.790Z,84.31
2017-10-25T21:35:31.436Z,84.52
2017-10-25T21:37:58.937Z,84.75
2017-10-25T21:40:26.435Z,84.90
2017-10-25T21:42:54.092Z,84.71
2017-10-25T21:45:21.588Z,85.39
2017-10-25T21:47:49.079Z,85.56
2017-10-25T21:50:16.604Z,85.83
2017-10-25T21:52:44.112Z,86.20
2017-10-25T21:55:11.712Z,86.06
2017-10-25T21:57:39.257Z,86.49
2017-10-25T22:00:06.749Z,86.71
2017-10-25T22:02:34.233Z,86.87
2017-10-25T22:05:01.848Z,87.25
2017-10-25T22:07:29.355Z,87.42
2017-10-25T22:09:56.888Z,87.63
2017-10-25T22:12:24.372Z,87.79
2017-10-25T22:14:51.872Z,87.77
2017-10-25T22:17:19.419Z,87.65
2017-10-25T22:19:46.996Z,87.38
2017-10-25T22:22:14.492Z,87.55
2017-10-25T22:24:42.034Z,87.07
2017-10-25T22:27:09.521Z,87.35
2017-10-25T22:29:37.008Z,87.07
2017-10-25T22:32:04.546Z,87.05
2017-10-25T22:34:32.054Z,87.08
2017-10-25T22:36:59.545Z,86.94
2017-10-25T22:39:27.159Z,86.91
2017-10-25T22:41:54.655Z,86.29
2017-10-25T22:44:22.196Z,86.34
2017-10-25T22:46:49.757Z,85.45
2017-10-25T22:49:17.300Z,85.35
2017-10-25T22:51:44.858Z,85.55
2017-10-25T22:54:12.411Z,84.81
2017-10-25T22:56:39.894Z,84.81
2017-10-25T22:59:07.436Z,84.61
2017-10-25T23:01:34.932Z,84.72
2017-10-25T23:04:02.420Z,84.94
2017-10-25T23:06:30.112Z,85.06
2017-10-25T23:08:57.612Z,85.17
2017-10-25T23:11:25.096Z,85.14
2017-10-25T23:13:52.693Z,85.04
2017-10-25T23:16:20.249Z,85.11
2017-10-25T23:18:47.728Z,85.20
2017-10-25T23:21:15.355Z,85.52
2017-10-25T23:23:42.848Z,85.91
2017-10-25T23:26:10.339Z,86.15
2017-10-25T23:28:37.940Z,86.59
2017-10-25T23:31:05.529Z,86.86
2017-10-25T23:33:33.061Z,87.01
2017-10-25T23:36:00.565Z,87.39
2017-10-25T23:38:28.139Z,87.88
2017-10-25T23:40:55.663Z,88.10
2017-10-25T23:43:23.153Z,88.27
2017-10-25T23:45:50.644Z,88.57
2017-10-25T23:48:18.156Z,88.44
2017-10-25T23:50:45.650Z,88.72
2017-10-25T23:53:13.176Z,88.56
2017-10-25T23:55:40.690Z,88.77
2017-10-25T23:58:08.175Z,88.82
